San Antonio, Texas
Traffic Map
Current Weather Conditions
San Antonio, Texas
Clear
Clear
71°
Feels Like: 71°
Wind Chill: 71° Ceiling: Unl
Heat Index: 71° Visibility: 10mi
Dew Point: 36° Wind: 7mph
Humidity: 28% Direction: 260° (W)
Pressure: 30.21in Gusts: 0mph
Raw Report DataKSKF 271658Z AUTO 26006KT 10SM CLR 22/02 A3021 RMK AO2 SLP227 T02170024 $
Traffic Incident Summary
Active as of:
Severity:
Category:
InformationThere was an issue retrieving the traffic information for this location. Please try a different location or try again shortly.
Advertisements
Track Severe Weather on mobile